sensor_id;sensor_type;location;lat;lon;timestamp;P1;durP1;ratioP1;P2;durP2;ratioP2
72113;SDS011;59989;46.220;19.888;2023-07-09T00:00:39;7.03;;;1.38;;
72113;SDS011;59989;46.220;19.888;2023-07-09T00:03:43;1.23;;;0.50;;
72113;SDS011;59989;46.220;19.888;2023-07-09T00:06:46;1.20;;;0.40;;
72113;SDS011;59989;46.220;19.888;2023-07-09T00:09:49;1.40;;;0.60;;
72113;SDS011;59989;46.220;19.888;2023-07-09T00:12:52;2.15;;;1.02;;
72113;SDS011;59989;46.220;19.888;2023-07-09T00:15:56;1.30;;;0.50;;
72113;SDS011;59989;46.220;19.888;2023-07-09T00:19:02;1.63;;;0.50;;
72113;SDS011;59989;46.220;19.888;2023-07-09T00:22:16;0.80;;;0.30;;
72113;SDS011;59989;46.220;19.888;2023-07-09T00:25:20;1.10;;;0.40;;
72113;SDS011;59989;46.220;19.888;2023-07-09T00:28:22;1.55;;;0.63;;
72113;SDS011;59989;46.220;19.888;2023-07-09T00:31:26;1.60;;;0.80;;
72113;SDS011;59989;46.220;19.888;2023-07-09T00:34:29;1.00;;;0.40;;
72113;SDS011;59989;46.220;19.888;2023-07-09T00:37:31;1.20;;;0.40;;
72113;SDS011;59989;46.220;19.888;2023-07-09T00:40:34;1.13;;;0.40;;
72113;SDS011;59989;46.220;19.888;2023-07-09T00:43:36;1.27;;;0.40;;
72113;SDS011;59989;46.220;19.888;2023-07-09T00:49:48;1.08;;;0.40;;
72113;SDS011;59989;46.220;19.888;2023-07-09T00:56:32;0.70;;;0.30;;
72113;SDS011;59989;46.220;19.888;2023-07-09T00:59:39;1.20;;;0.43;;
72113;SDS011;59989;46.220;19.888;2023-07-09T01:02:44;1.38;;;0.50;;
72113;SDS011;59989;46.220;19.888;2023-07-09T01:05:49;1.52;;;0.50;;
72113;SDS011;59989;46.220;19.888;2023-07-09T01:08:54;1.00;;;0.40;;
72113;SDS011;59989;46.220;19.888;2023-07-09T01:11:57;0.60;;;0.22;;
72113;SDS011;59989;46.220;19.888;2023-07-09T01:15:03;1.17;;;0.50;;
72113;SDS011;59989;46.220;19.888;2023-07-09T01:18:06;0.93;;;0.38;;
72113;SDS011;59989;46.220;19.888;2023-07-09T01:21:11;1.30;;;0.47;;
72113;SDS011;59989;46.220;19.888;2023-07-09T01:27:51;1.20;;;0.52;;
72113;SDS011;59989;46.220;19.888;2023-07-09T01:30:54;2.00;;;0.90;;
72113;SDS011;59989;46.220;19.888;2023-07-09T01:33:58;1.02;;;0.40;;
72113;SDS011;59989;46.220;19.888;2023-07-09T01:37:02;1.00;;;0.35;;
72113;SDS011;59989;46.220;19.888;2023-07-09T01:40:05;1.00;;;0.40;;
72113;SDS011;59989;46.220;19.888;2023-07-09T01:43:29;1.02;;;0.38;;
72113;SDS011;59989;46.220;19.888;2023-07-09T01:46:33;1.15;;;0.40;;
72113;SDS011;59989;46.220;19.888;2023-07-09T01:49:35;0.90;;;0.30;;
72113;SDS011;59989;46.220;19.888;2023-07-09T01:52:40;1.42;;;0.50;;
72113;SDS011;59989;46.220;19.888;2023-07-09T01:55:44;0.70;;;0.30;;
72113;SDS011;59989;46.220;19.888;2023-07-09T01:58:47;0.95;;;0.40;;
72113;SDS011;59989;46.220;19.888;2023-07-09T02:01:49;1.25;;;0.50;;
72113;SDS011;59989;46.220;19.888;2023-07-09T02:04:56;1.60;;;0.77;;
72113;SDS011;59989;46.220;19.888;2023-07-09T02:07:59;1.38;;;0.50;;
72113;SDS011;59989;46.220;19.888;2023-07-09T02:11:02;1.90;;;0.67;;
72113;SDS011;59989;46.220;19.888;2023-07-09T02:14:05;0.70;;;0.30;;
72113;SDS011;59989;46.220;19.888;2023-07-09T02:17:08;1.65;;;0.63;;
72113;SDS011;59989;46.220;19.888;2023-07-09T02:20:12;1.48;;;0.73;;
72113;SDS011;59989;46.220;19.888;2023-07-09T02:23:15;1.02;;;0.35;;
72113;SDS011;59989;46.220;19.888;2023-07-09T02:26:17;1.10;;;0.50;;
72113;SDS011;59989;46.220;19.888;2023-07-09T02:29:20;0.98;;;0.30;;
72113;SDS011;59989;46.220;19.888;2023-07-09T02:32:25;1.08;;;0.38;;
72113;SDS011;59989;46.220;19.888;2023-07-09T02:35:29;1.05;;;0.50;;
72113;SDS011;59989;46.220;19.888;2023-07-09T02:38:31;1.55;;;0.52;;
72113;SDS011;59989;46.220;19.888;2023-07-09T02:41:34;2.07;;;0.80;;
72113;SDS011;59989;46.220;19.888;2023-07-09T02:44:37;1.27;;;0.45;;
72113;SDS011;59989;46.220;19.888;2023-07-09T02:47:42;1.20;;;0.40;;
72113;SDS011;59989;46.220;19.888;2023-07-09T02:50:45;3.00;;;1.80;;
72113;SDS011;59989;46.220;19.888;2023-07-09T02:53:48;2.40;;;1.05;;
72113;SDS011;59989;46.220;19.888;2023-07-09T02:56:50;0.83;;;0.30;;
72113;SDS011;59989;46.220;19.888;2023-07-09T02:59:53;0.95;;;0.35;;
72113;SDS011;59989;46.220;19.888;2023-07-09T03:02:56;1.35;;;0.40;;
72113;SDS011;59989;46.220;19.888;2023-07-09T03:05:58;3.28;;;0.93;;
72113;SDS011;59989;46.220;19.888;2023-07-09T03:09:02;1.17;;;0.40;;
72113;SDS011;59989;46.220;19.888;2023-07-09T03:12:06;1.50;;;0.70;;
72113;SDS011;59989;46.220;19.888;2023-07-09T03:15:11;0.70;;;0.30;;
72113;SDS011;59989;46.220;19.888;2023-07-09T03:18:14;1.00;;;0.40;;
72113;SDS011;59989;46.220;19.888;2023-07-09T03:21:16;2.42;;;0.98;;
72113;SDS011;59989;46.220;19.888;2023-07-09T03:24:19;2.35;;;0.50;;
72113;SDS011;59989;46.220;19.888;2023-07-09T03:27:22;1.00;;;0.37;;
72113;SDS011;59989;46.220;19.888;2023-07-09T03:30:24;0.82;;;0.30;;
72113;SDS011;59989;46.220;19.888;2023-07-09T03:33:27;1.02;;;0.40;;
72113;SDS011;59989;46.220;19.888;2023-07-09T03:36:29;4.95;;;0.70;;
72113;SDS011;59989;46.220;19.888;2023-07-09T03:39:32;1.48;;;0.60;;
72113;SDS011;59989;46.220;19.888;2023-07-09T03:42:34;2.13;;;1.07;;
72113;SDS011;59989;46.220;19.888;2023-07-09T03:45:37;1.20;;;0.50;;
72113;SDS011;59989;46.220;19.888;2023-07-09T03:48:39;0.98;;;0.30;;
72113;SDS011;59989;46.220;19.888;2023-07-09T03:51:42;1.88;;;0.65;;
72113;SDS011;59989;46.220;19.888;2023-07-09T03:54:45;1.20;;;0.45;;
72113;SDS011;59989;46.220;19.888;2023-07-09T03:57:47;1.03;;;0.40;;
72113;SDS011;59989;46.220;19.888;2023-07-09T04:00:49;1.27;;;0.50;;
72113;SDS011;59989;46.220;19.888;2023-07-09T04:03:52;0.93;;;0.30;;
72113;SDS011;59989;46.220;19.888;2023-07-09T04:06:55;1.63;;;0.52;;
72113;SDS011;59989;46.220;19.888;2023-07-09T04:09:57;1.70;;;0.55;;
72113;SDS011;59989;46.220;19.888;2023-07-09T04:12:59;1.53;;;0.77;;
72113;SDS011;59989;46.220;19.888;2023-07-09T04:16:02;1.52;;;0.55;;
72113;SDS011;59989;46.220;19.888;2023-07-09T04:19:05;1.92;;;0.80;;
72113;SDS011;59989;46.220;19.888;2023-07-09T04:22:08;1.88;;;0.68;;
72113;SDS011;59989;46.220;19.888;2023-07-09T04:25:14;1.02;;;0.40;;
72113;SDS011;59989;46.220;19.888;2023-07-09T04:28:16;1.23;;;0.43;;
72113;SDS011;59989;46.220;19.888;2023-07-09T04:31:19;1.05;;;0.35;;
72113;SDS011;59989;46.220;19.888;2023-07-09T04:34:21;1.45;;;0.50;;
72113;SDS011;59989;46.220;19.888;2023-07-09T04:37:24;0.98;;;0.32;;
72113;SDS011;59989;46.220;19.888;2023-07-09T04:40:27;1.50;;;0.50;;
72113;SDS011;59989;46.220;19.888;2023-07-09T04:43:30;0.70;;;0.30;;
72113;SDS011;59989;46.220;19.888;2023-07-09T04:46:33;2.17;;;0.75;;
72113;SDS011;59989;46.220;19.888;2023-07-09T04:49:36;1.60;;;0.60;;
72113;SDS011;59989;46.220;19.888;2023-07-09T04:52:38;1.55;;;0.60;;
72113;SDS011;59989;46.220;19.888;2023-07-09T04:55:41;1.33;;;0.57;;
72113;SDS011;59989;46.220;19.888;2023-07-09T04:58:44;1.47;;;0.50;;
72113;SDS011;59989;46.220;19.888;2023-07-09T05:01:46;0.70;;;0.20;;
72113;SDS011;59989;46.220;19.888;2023-07-09T05:04:49;1.20;;;0.40;;
72113;SDS011;59989;46.220;19.888;2023-07-09T05:07:51;1.30;;;0.43;;
72113;SDS011;59989;46.220;19.888;2023-07-09T05:10:55;1.20;;;0.40;;
72113;SDS011;59989;46.220;19.888;2023-07-09T05:13:58;1.27;;;0.50;;
72113;SDS011;59989;46.220;19.888;2023-07-09T05:17:01;0.90;;;0.30;;
72113;SDS011;59989;46.220;19.888;2023-07-09T05:20:03;1.25;;;0.55;;
72113;SDS011;59989;46.220;19.888;2023-07-09T05:23:08;3.28;;;1.48;;
72113;SDS011;59989;46.220;19.888;2023-07-09T05:26:11;1.45;;;0.47;;
72113;SDS011;59989;46.220;19.888;2023-07-09T05:29:14;1.33;;;0.50;;
72113;SDS011;59989;46.220;19.888;2023-07-09T05:32:16;1.23;;;0.55;;
72113;SDS011;59989;46.220;19.888;2023-07-09T05:35:19;1.60;;;0.60;;
72113;SDS011;59989;46.220;19.888;2023-07-09T05:38:21;1.10;;;0.40;;
72113;SDS011;59989;46.220;19.888;2023-07-09T05:41:23;2.00;;;0.70;;
72113;SDS011;59989;46.220;19.888;2023-07-09T05:44:27;1.07;;;0.40;;
72113;SDS011;59989;46.220;19.888;2023-07-09T05:47:29;2.15;;;0.80;;
72113;SDS011;59989;46.220;19.888;2023-07-09T05:50:32;1.48;;;0.55;;
72113;SDS011;59989;46.220;19.888;2023-07-09T05:53:36;1.33;;;0.50;;
72113;SDS011;59989;46.220;19.888;2023-07-09T05:56:39;1.20;;;0.40;;
72113;SDS011;59989;46.220;19.888;2023-07-09T05:59:41;1.40;;;0.50;;
72113;SDS011;59989;46.220;19.888;2023-07-09T06:02:44;1.27;;;0.45;;
72113;SDS011;59989;46.220;19.888;2023-07-09T06:05:47;2.28;;;0.85;;
72113;SDS011;59989;46.220;19.888;2023-07-09T06:08:52;1.52;;;0.60;;
72113;SDS011;59989;46.220;19.888;2023-07-09T06:11:55;1.67;;;0.65;;
72113;SDS011;59989;46.220;19.888;2023-07-09T06:14:58;1.83;;;0.60;;
72113;SDS011;59989;46.220;19.888;2023-07-09T06:18:00;1.95;;;0.60;;
72113;SDS011;59989;46.220;19.888;2023-07-09T06:21:03;1.45;;;0.57;;
72113;SDS011;59989;46.220;19.888;2023-07-09T06:24:06;1.33;;;0.50;;
72113;SDS011;59989;46.220;19.888;2023-07-09T06:27:09;2.05;;;0.60;;
72113;SDS011;59989;46.220;19.888;2023-07-09T06:30:12;1.63;;;0.60;;
72113;SDS011;59989;46.220;19.888;2023-07-09T06:33:16;2.00;;;0.73;;
72113;SDS011;59989;46.220;19.888;2023-07-09T06:36:20;2.20;;;0.93;;
72113;SDS011;59989;46.220;19.888;2023-07-09T06:39:23;1.90;;;0.63;;
72113;SDS011;59989;46.220;19.888;2023-07-09T06:42:26;1.30;;;0.50;;
72113;SDS011;59989;46.220;19.888;2023-07-09T06:46:00;2.10;;;0.90;;
72113;SDS011;59989;46.220;19.888;2023-07-09T06:49:04;1.40;;;0.50;;
72113;SDS011;59989;46.220;19.888;2023-07-09T06:52:08;1.70;;;0.60;;
72113;SDS011;59989;46.220;19.888;2023-07-09T06:55:11;1.83;;;0.60;;
72113;SDS011;59989;46.220;19.888;2023-07-09T06:58:13;1.88;;;0.68;;
72113;SDS011;59989;46.220;19.888;2023-07-09T07:01:16;2.90;;;1.03;;
72113;SDS011;59989;46.220;19.888;2023-07-09T07:04:22;1.48;;;0.55;;
72113;SDS011;59989;46.220;19.888;2023-07-09T07:07:24;2.15;;;0.80;;
72113;SDS011;59989;46.220;19.888;2023-07-09T07:10:27;1.98;;;0.70;;
72113;SDS011;59989;46.220;19.888;2023-07-09T07:13:30;1.63;;;0.57;;
72113;SDS011;59989;46.220;19.888;2023-07-09T07:16:34;1.93;;;0.63;;
72113;SDS011;59989;46.220;19.888;2023-07-09T07:19:36;1.98;;;0.68;;
72113;SDS011;59989;46.220;19.888;2023-07-09T07:22:39;2.22;;;0.80;;
72113;SDS011;59989;46.220;19.888;2023-07-09T07:25:41;5.63;;;1.10;;
72113;SDS011;59989;46.220;19.888;2023-07-09T07:28:44;2.47;;;1.02;;
72113;SDS011;59989;46.220;19.888;2023-07-09T07:31:47;2.23;;;1.00;;
72113;SDS011;59989;46.220;19.888;2023-07-09T07:34:50;2.50;;;0.98;;
72113;SDS011;59989;46.220;19.888;2023-07-09T07:37:53;2.47;;;0.80;;
72113;SDS011;59989;46.220;19.888;2023-07-09T07:40:55;1.70;;;0.60;;
72113;SDS011;59989;46.220;19.888;2023-07-09T07:43:58;1.70;;;0.60;;
72113;SDS011;59989;46.220;19.888;2023-07-09T07:47:00;1.70;;;0.60;;
72113;SDS011;59989;46.220;19.888;2023-07-09T07:50:03;2.42;;;0.75;;
72113;SDS011;59989;46.220;19.888;2023-07-09T07:53:06;1.90;;;0.68;;
72113;SDS011;59989;46.220;19.888;2023-07-09T07:56:10;2.08;;;0.80;;
72113;SDS011;59989;46.220;19.888;2023-07-09T07:59:12;1.85;;;0.70;;
72113;SDS011;59989;46.220;19.888;2023-07-09T08:02:16;2.10;;;0.80;;
72113;SDS011;59989;46.220;19.888;2023-07-09T08:05:18;2.65;;;1.10;;
72113;SDS011;59989;46.220;19.888;2023-07-09T08:08:21;2.10;;;0.80;;
72113;SDS011;59989;46.220;19.888;2023-07-09T08:11:24;2.58;;;0.95;;
72113;SDS011;59989;46.220;19.888;2023-07-09T08:14:27;2.15;;;0.82;;
72113;SDS011;59989;46.220;19.888;2023-07-09T08:17:30;2.00;;;0.70;;
72113;SDS011;59989;46.220;19.888;2023-07-09T08:20:33;2.47;;;0.93;;
72113;SDS011;59989;46.220;19.888;2023-07-09T08:23:35;2.13;;;0.73;;
72113;SDS011;59989;46.220;19.888;2023-07-09T08:26:38;1.90;;;0.70;;
72113;SDS011;59989;46.220;19.888;2023-07-09T08:29:41;2.03;;;0.73;;
72113;SDS011;59989;46.220;19.888;2023-07-09T08:32:44;1.70;;;0.60;;
72113;SDS011;59989;46.220;19.888;2023-07-09T08:35:50;2.25;;;0.90;;
72113;SDS011;59989;46.220;19.888;2023-07-09T08:38:53;1.90;;;0.70;;
72113;SDS011;59989;46.220;19.888;2023-07-09T08:42:00;3.65;;;0.90;;
72113;SDS011;59989;46.220;19.888;2023-07-09T08:48:30;1.90;;;0.70;;
72113;SDS011;59989;46.220;19.888;2023-07-09T08:51:39;2.22;;;0.80;;
72113;SDS011;59989;46.220;19.888;2023-07-09T08:54:45;2.00;;;0.70;;
72113;SDS011;59989;46.220;19.888;2023-07-09T08:57:56;2.17;;;0.80;;
72113;SDS011;59989;46.220;19.888;2023-07-09T09:01:03;1.98;;;0.70;;
72113;SDS011;59989;46.220;19.888;2023-07-09T09:07:28;3.03;;;1.20;;
72113;SDS011;59989;46.220;19.888;2023-07-09T09:10:47;2.20;;;0.90;;
72113;SDS011;59989;46.220;19.888;2023-07-09T09:13:55;2.50;;;0.95;;
72113;SDS011;59989;46.220;19.888;2023-07-09T09:17:07;2.10;;;0.80;;
72113;SDS011;59989;46.220;19.888;2023-07-09T09:20:19;2.07;;;0.70;;
72113;SDS011;59989;46.220;19.888;2023-07-09T09:23:25;2.35;;;0.82;;
72113;SDS011;59989;46.220;19.888;2023-07-09T09:26:42;1.80;;;0.65;;
72113;SDS011;59989;46.220;19.888;2023-07-09T09:29:46;3.10;;;1.20;;
72113;SDS011;59989;46.220;19.888;2023-07-09T09:32:50;3.38;;;1.23;;
72113;SDS011;59989;46.220;19.888;2023-07-09T09:36:01;2.27;;;0.83;;
72113;SDS011;59989;46.220;19.888;2023-07-09T09:39:09;2.15;;;0.80;;
72113;SDS011;59989;46.220;19.888;2023-07-09T09:42:11;2.38;;;0.85;;
72113;SDS011;59989;46.220;19.888;2023-07-09T09:45:15;2.08;;;0.80;;
72113;SDS011;59989;46.220;19.888;2023-07-09T09:48:25;1.80;;;0.70;;
72113;SDS011;59989;46.220;19.888;2023-07-09T09:51:30;3.23;;;1.47;;
72113;SDS011;59989;46.220;19.888;2023-07-09T09:54:32;2.40;;;0.80;;
72113;SDS011;59989;46.220;19.888;2023-07-09T09:57:35;2.50;;;1.00;;
72113;SDS011;59989;46.220;19.888;2023-07-09T10:00:37;2.20;;;0.90;;
72113;SDS011;59989;46.220;19.888;2023-07-09T10:03:40;2.70;;;1.00;;
72113;SDS011;59989;46.220;19.888;2023-07-09T10:06:50;2.40;;;0.87;;
72113;SDS011;59989;46.220;19.888;2023-07-09T10:09:57;2.35;;;0.90;;
72113;SDS011;59989;46.220;19.888;2023-07-09T10:16:14;2.72;;;1.10;;
72113;SDS011;59989;46.220;19.888;2023-07-09T10:19:41;1.98;;;0.70;;
72113;SDS011;59989;46.220;19.888;2023-07-09T10:26:32;2.78;;;1.00;;
72113;SDS011;59989;46.220;19.888;2023-07-09T10:33:06;2.78;;;1.00;;
72113;SDS011;59989;46.220;19.888;2023-07-09T10:39:43;3.00;;;1.10;;
72113;SDS011;59989;46.220;19.888;2023-07-09T10:42:54;2.63;;;0.90;;
72113;SDS011;59989;46.220;19.888;2023-07-09T10:46:03;3.17;;;1.10;;
72113;SDS011;59989;46.220;19.888;2023-07-09T10:49:12;2.53;;;0.82;;
72113;SDS011;59989;46.220;19.888;2023-07-09T10:55:28;3.07;;;1.30;;
72113;SDS011;59989;46.220;19.888;2023-07-09T10:58:37;2.55;;;1.02;;
72113;SDS011;59989;46.220;19.888;2023-07-09T11:01:47;2.42;;;0.88;;
72113;SDS011;59989;46.220;19.888;2023-07-09T11:04:53;2.70;;;1.00;;
72113;SDS011;59989;46.220;19.888;2023-07-09T11:11:11;3.37;;;1.30;;
72113;SDS011;59989;46.220;19.888;2023-07-09T11:14:43;2.65;;;1.08;;
72113;SDS011;59989;46.220;19.888;2023-07-09T11:17:49;2.70;;;1.05;;
72113;SDS011;59989;46.220;19.888;2023-07-09T11:20:59;3.35;;;1.13;;
72113;SDS011;59989;46.220;19.888;2023-07-09T11:24:04;2.10;;;0.80;;
72113;SDS011;59989;46.220;19.888;2023-07-09T11:27:15;2.37;;;0.90;;
72113;SDS011;59989;46.220;19.888;2023-07-09T11:30:24;2.28;;;0.90;;
72113;SDS011;59989;46.220;19.888;2023-07-09T11:33:29;1.98;;;0.73;;
72113;SDS011;59989;46.220;19.888;2023-07-09T11:36:31;2.00;;;0.70;;
72113;SDS011;59989;46.220;19.888;2023-07-09T11:46:28;2.38;;;0.90;;
72113;SDS011;59989;46.220;19.888;2023-07-09T11:50:20;2.33;;;0.90;;
72113;SDS011;59989;46.220;19.888;2023-07-09T11:53:05;3.00;;;1.23;;
72113;SDS011;59989;46.220;19.888;2023-07-09T11:56:18;4.90;;;1.45;;
72113;SDS011;59989;46.220;19.888;2023-07-09T11:59:26;2.87;;;1.07;;
72113;SDS011;59989;46.220;19.888;2023-07-09T12:02:31;2.70;;;0.90;;
72113;SDS011;59989;46.220;19.888;2023-07-09T12:05:36;2.95;;;1.15;;
72113;SDS011;59989;46.220;19.888;2023-07-09T12:08:39;2.45;;;0.90;;
72113;SDS011;59989;46.220;19.888;2023-07-09T12:11:48;2.85;;;1.08;;
72113;SDS011;59989;46.220;19.888;2023-07-09T12:14:52;2.53;;;0.93;;
72113;SDS011;59989;46.220;19.888;2023-07-09T12:17:55;2.42;;;0.93;;
72113;SDS011;59989;46.220;19.888;2023-07-09T12:21:02;2.40;;;0.90;;
72113;SDS011;59989;46.220;19.888;2023-07-09T12:24:20;2.28;;;0.80;;
72113;SDS011;59989;46.220;19.888;2023-07-09T12:27:25;3.05;;;0.98;;
72113;SDS011;59989;46.220;19.888;2023-07-09T12:30:31;2.67;;;0.97;;
72113;SDS011;59989;46.220;19.888;2023-07-09T12:33:35;2.70;;;1.05;;
72113;SDS011;59989;46.220;19.888;2023-07-09T12:36:38;2.85;;;1.10;;
72113;SDS011;59989;46.220;19.888;2023-07-09T12:39:45;2.97;;;1.13;;
72113;SDS011;59989;46.220;19.888;2023-07-09T12:42:48;2.35;;;0.90;;
72113;SDS011;59989;46.220;19.888;2023-07-09T12:45:51;3.10;;;1.10;;
72113;SDS011;59989;46.220;19.888;2023-07-09T12:48:56;3.33;;;1.25;;
72113;SDS011;59989;46.220;19.888;2023-07-09T12:52:03;3.20;;;1.40;;
72113;SDS011;59989;46.220;19.888;2023-07-09T12:55:24;4.03;;;1.60;;
72113;SDS011;59989;46.220;19.888;2023-07-09T12:58:30;3.83;;;1.60;;
72113;SDS011;59989;46.220;19.888;2023-07-09T13:01:34;3.40;;;1.50;;
72113;SDS011;59989;46.220;19.888;2023-07-09T13:04:37;4.10;;;1.70;;
72113;SDS011;59989;46.220;19.888;2023-07-09T13:07:40;3.97;;;1.70;;
72113;SDS011;59989;46.220;19.888;2023-07-09T13:10:43;4.47;;;1.30;;
72113;SDS011;59989;46.220;19.888;2023-07-09T13:13:55;2.95;;;1.17;;
72113;SDS011;59989;46.220;19.888;2023-07-09T13:17:04;3.40;;;1.30;;
72113;SDS011;59989;46.220;19.888;2023-07-09T13:20:07;3.75;;;1.58;;
72113;SDS011;59989;46.220;19.888;2023-07-09T13:23:11;3.80;;;1.23;;
72113;SDS011;59989;46.220;19.888;2023-07-09T13:26:17;3.60;;;1.50;;
72113;SDS011;59989;46.220;19.888;2023-07-09T13:29:19;4.10;;;1.75;;
72113;SDS011;59989;46.220;19.888;2023-07-09T13:32:22;4.07;;;1.80;;
72113;SDS011;59989;46.220;19.888;2023-07-09T13:35:26;3.60;;;1.52;;
72113;SDS011;59989;46.220;19.888;2023-07-09T13:38:28;4.07;;;1.75;;
72113;SDS011;59989;46.220;19.888;2023-07-09T13:41:32;4.57;;;1.90;;
72113;SDS011;59989;46.220;19.888;2023-07-09T13:44:34;4.43;;;1.88;;
72113;SDS011;59989;46.220;19.888;2023-07-09T13:47:37;4.30;;;1.80;;
72113;SDS011;59989;46.220;19.888;2023-07-09T13:50:40;4.68;;;2.03;;
72113;SDS011;59989;46.220;19.888;2023-07-09T13:53:43;4.60;;;2.10;;
72113;SDS011;59989;46.220;19.888;2023-07-09T13:56:45;4.90;;;2.17;;
72113;SDS011;59989;46.220;19.888;2023-07-09T13:59:48;5.15;;;2.40;;
72113;SDS011;59989;46.220;19.888;2023-07-09T14:02:51;4.43;;;2.00;;
72113;SDS011;59989;46.220;19.888;2023-07-09T14:05:54;3.58;;;1.27;;
72113;SDS011;59989;46.220;19.888;2023-07-09T14:08:56;3.38;;;1.38;;
72113;SDS011;59989;46.220;19.888;2023-07-09T14:11:58;5.00;;;2.22;;
72113;SDS011;59989;46.220;19.888;2023-07-09T14:15:01;3.58;;;1.38;;
72113;SDS011;59989;46.220;19.888;2023-07-09T14:18:10;3.00;;;1.20;;
72113;SDS011;59989;46.220;19.888;2023-07-09T14:21:20;4.63;;;2.10;;
72113;SDS011;59989;46.220;19.888;2023-07-09T14:24:26;3.58;;;1.40;;
72113;SDS011;59989;46.220;19.888;2023-07-09T14:27:30;4.28;;;1.83;;
72113;SDS011;59989;46.220;19.888;2023-07-09T14:30:33;4.65;;;2.10;;
72113;SDS011;59989;46.220;19.888;2023-07-09T14:33:36;4.70;;;2.10;;
72113;SDS011;59989;46.220;19.888;2023-07-09T14:36:39;4.70;;;2.08;;
72113;SDS011;59989;46.220;19.888;2023-07-09T14:39:41;5.00;;;2.30;;
72113;SDS011;59989;46.220;19.888;2023-07-09T14:42:44;4.55;;;2.17;;
72113;SDS011;59989;46.220;19.888;2023-07-09T14:45:47;4.75;;;2.10;;
72113;SDS011;59989;46.220;19.888;2023-07-09T14:48:51;5.53;;;2.40;;
72113;SDS011;59989;46.220;19.888;2023-07-09T14:51:54;4.68;;;2.13;;
72113;SDS011;59989;46.220;19.888;2023-07-09T14:54:57;4.55;;;2.17;;
72113;SDS011;59989;46.220;19.888;2023-07-09T14:58:00;4.68;;;2.30;;
72113;SDS011;59989;46.220;19.888;2023-07-09T15:01:02;3.28;;;1.45;;
72113;SDS011;59989;46.220;19.888;2023-07-09T15:04:40;3.10;;;1.17;;
72113;SDS011;59989;46.220;19.888;2023-07-09T15:07:35;2.80;;;1.00;;
72113;SDS011;59989;46.220;19.888;2023-07-09T15:10:38;2.80;;;1.10;;
72113;SDS011;59989;46.220;19.888;2023-07-09T15:13:41;4.47;;;1.92;;
72113;SDS011;59989;46.220;19.888;2023-07-09T15:16:45;3.72;;;1.33;;
72113;SDS011;59989;46.220;19.888;2023-07-09T15:19:49;3.60;;;1.30;;
72113;SDS011;59989;46.220;19.888;2023-07-09T15:22:52;3.53;;;1.40;;
72113;SDS011;59989;46.220;19.888;2023-07-09T15:25:55;4.72;;;2.05;;
72113;SDS011;59989;46.220;19.888;2023-07-09T15:28:58;4.97;;;2.00;;
72113;SDS011;59989;46.220;19.888;2023-07-09T15:32:01;4.30;;;1.88;;
72113;SDS011;59989;46.220;19.888;2023-07-09T15:35:04;4.27;;;1.80;;
72113;SDS011;59989;46.220;19.888;2023-07-09T15:38:50;4.50;;;2.05;;
72113;SDS011;59989;46.220;19.888;2023-07-09T15:41:36;4.50;;;2.10;;
72113;SDS011;59989;46.220;19.888;2023-07-09T15:44:38;5.25;;;2.33;;
72113;SDS011;59989;46.220;19.888;2023-07-09T15:47:41;4.05;;;1.70;;
72113;SDS011;59989;46.220;19.888;2023-07-09T15:50:44;5.30;;;2.47;;
72113;SDS011;59989;46.220;19.888;2023-07-09T15:53:46;4.80;;;2.10;;
72113;SDS011;59989;46.220;19.888;2023-07-09T15:56:50;4.10;;;1.77;;
72113;SDS011;59989;46.220;19.888;2023-07-09T15:59:54;4.57;;;2.15;;
72113;SDS011;59989;46.220;19.888;2023-07-09T16:02:57;4.47;;;1.90;;
72113;SDS011;59989;46.220;19.888;2023-07-09T16:06:20;4.53;;;2.07;;
72113;SDS011;59989;46.220;19.888;2023-07-09T16:09:23;4.20;;;1.77;;
72113;SDS011;59989;46.220;19.888;2023-07-09T16:12:25;4.40;;;1.63;;
72113;SDS011;59989;46.220;19.888;2023-07-09T16:15:30;3.90;;;1.60;;
72113;SDS011;59989;46.220;19.888;2023-07-09T16:18:32;3.97;;;1.70;;
72113;SDS011;59989;46.220;19.888;2023-07-09T16:21:35;4.10;;;1.67;;
72113;SDS011;59989;46.220;19.888;2023-07-09T16:24:37;3.53;;;1.30;;
72113;SDS011;59989;46.220;19.888;2023-07-09T16:27:41;3.80;;;1.50;;
72113;SDS011;59989;46.220;19.888;2023-07-09T16:30:44;3.78;;;1.50;;
72113;SDS011;59989;46.220;19.888;2023-07-09T16:33:48;3.95;;;1.67;;
72113;SDS011;59989;46.220;19.888;2023-07-09T16:36:51;3.60;;;1.50;;
72113;SDS011;59989;46.220;19.888;2023-07-09T16:39:54;3.85;;;1.15;;
72113;SDS011;59989;46.220;19.888;2023-07-09T16:42:57;2.85;;;1.20;;
72113;SDS011;59989;46.220;19.888;2023-07-09T16:46:14;2.53;;;1.00;;
72113;SDS011;59989;46.220;19.888;2023-07-09T16:49:26;2.70;;;1.00;;
72113;SDS011;59989;46.220;19.888;2023-07-09T16:52:30;2.30;;;0.80;;
72113;SDS011;59989;46.220;19.888;2023-07-09T16:55:33;2.80;;;1.10;;
72113;SDS011;59989;46.220;19.888;2023-07-09T16:58:35;2.90;;;1.20;;
72113;SDS011;59989;46.220;19.888;2023-07-09T17:01:39;3.45;;;1.38;;
72113;SDS011;59989;46.220;19.888;2023-07-09T17:04:42;3.60;;;1.45;;
72113;SDS011;59989;46.220;19.888;2023-07-09T17:07:44;3.37;;;1.47;;
72113;SDS011;59989;46.220;19.888;2023-07-09T17:10:47;3.40;;;1.33;;
72113;SDS011;59989;46.220;19.888;2023-07-09T17:13:51;2.97;;;1.10;;
72113;SDS011;59989;46.220;19.888;2023-07-09T17:16:54;2.60;;;0.98;;
72113;SDS011;59989;46.220;19.888;2023-07-09T17:19:57;3.25;;;1.02;;
72113;SDS011;59989;46.220;19.888;2023-07-09T17:23:00;2.73;;;1.10;;
72113;SDS011;59989;46.220;19.888;2023-07-09T17:26:02;2.83;;;1.00;;
72113;SDS011;59989;46.220;19.888;2023-07-09T17:29:08;2.78;;;1.20;;
72113;SDS011;59989;46.220;19.888;2023-07-09T17:32:12;2.50;;;0.90;;
72113;SDS011;59989;46.220;19.888;2023-07-09T17:35:16;2.80;;;1.10;;
72113;SDS011;59989;46.220;19.888;2023-07-09T17:38:43;2.53;;;0.90;;
72113;SDS011;59989;46.220;19.888;2023-07-09T17:41:42;2.10;;;0.80;;
72113;SDS011;59989;46.220;19.888;2023-07-09T17:44:44;2.53;;;0.90;;
72113;SDS011;59989;46.220;19.888;2023-07-09T17:47:47;2.38;;;0.80;;
72113;SDS011;59989;46.220;19.888;2023-07-09T17:50:50;3.28;;;0.93;;
72113;SDS011;59989;46.220;19.888;2023-07-09T17:53:52;2.33;;;0.70;;
72113;SDS011;59989;46.220;19.888;2023-07-09T17:56:55;2.10;;;0.80;;
72113;SDS011;59989;46.220;19.888;2023-07-09T17:59:59;2.13;;;0.80;;
72113;SDS011;59989;46.220;19.888;2023-07-09T18:03:05;4.60;;;1.10;;
72113;SDS011;59989;46.220;19.888;2023-07-09T18:06:12;1.95;;;0.70;;
72113;SDS011;59989;46.220;19.888;2023-07-09T18:09:20;1.77;;;0.67;;
72113;SDS011;59989;46.220;19.888;2023-07-09T18:12:24;2.10;;;0.75;;
72113;SDS011;59989;46.220;19.888;2023-07-09T18:15:28;2.97;;;0.93;;
72113;SDS011;59989;46.220;19.888;2023-07-09T18:18:31;2.92;;;0.90;;
72113;SDS011;59989;46.220;19.888;2023-07-09T18:21:34;1.58;;;0.57;;
72113;SDS011;59989;46.220;19.888;2023-07-09T18:24:38;1.40;;;0.50;;
72113;SDS011;59989;46.220;19.888;2023-07-09T18:27:45;2.22;;;0.82;;
72113;SDS011;59989;46.220;19.888;2023-07-09T18:30:51;1.83;;;0.63;;
72113;SDS011;59989;46.220;19.888;2023-07-09T18:34:13;1.80;;;0.60;;
72113;SDS011;59989;46.220;19.888;2023-07-09T18:37:16;2.38;;;0.93;;
72113;SDS011;59989;46.220;19.888;2023-07-09T18:40:19;1.83;;;0.63;;
72113;SDS011;59989;46.220;19.888;2023-07-09T18:43:23;1.63;;;0.60;;
72113;SDS011;59989;46.220;19.888;2023-07-09T18:46:34;2.08;;;0.80;;
72113;SDS011;59989;46.220;19.888;2023-07-09T18:49:36;1.73;;;0.60;;
72113;SDS011;59989;46.220;19.888;2023-07-09T18:52:39;1.73;;;0.70;;
72113;SDS011;59989;46.220;19.888;2023-07-09T18:55:41;1.87;;;0.70;;
72113;SDS011;59989;46.220;19.888;2023-07-09T18:58:44;1.63;;;0.60;;